Salt, Spain
Current Conditions -  °F | °C
As of 8:00 PM on Thursday 18 Dec 2014 (Local Time) from LEGE Reporting Station
Clear Clear  
Wind Chill: 54°   Ceiling: Unl
Heat Index: 54°   Visibility: 6mi
Dew Point: 50°   Wind: 2mph
Humidity: 88%   Direction: NA
Pressure: 30.27"   Gusts: NA
Location:  41.97°N, 2.79°E
Report Text: LEGE 181900Z VRB02KT CAVOK 12/10 Q1025
Loading
Personal Weather Stations






























Interactive Weather Map New forecast layout! Learn more

10-Day Weather Forecast

Advertisements
Track Severe Weather on mobile